createdAt,value
2023-03-20T12:02:17.335Z,97782.03
2023-03-20T12:04:44.588Z,97789.47
2023-03-20T12:07:13.141Z,97787.72
2023-03-20T12:09:42.091Z,97786.53
2023-03-20T12:12:15.487Z,97795.94
2023-03-20T12:14:46.170Z,97793.66
2023-03-20T12:17:32.356Z,97786.22
2023-03-20T12:20:02.793Z,97781.25
2023-03-20T12:22:31.970Z,97780.91
2023-03-20T12:25:01.986Z,97774.94
2023-03-20T12:27:32.908Z,97764.28
2023-03-20T12:30:03.926Z,97767.19
2023-03-20T12:32:35.396Z,97766.06
2023-03-20T12:35:05.150Z,97769.31
2023-03-20T12:37:35.106Z,97761.06
2023-03-20T12:40:02.301Z,97748.72
2023-03-20T12:42:39.387Z,97746.63
2023-03-20T12:45:09.525Z,97749.81
2023-03-20T12:48:02.469Z,97747.00
2023-03-20T12:50:32.089Z,97744.69
2023-03-20T12:53:10.600Z,97745.09
2023-03-20T12:55:43.229Z,97738.16
2023-03-20T12:58:17.651Z,97731.44
2023-03-20T13:00:47.748Z,97724.94
2023-03-20T13:03:27.215Z,97723.97
2023-03-20T13:05:58.093Z,97707.63
2023-03-20T13:08:57.651Z,97708.34
2023-03-20T13:11:29.167Z,97705.25
2023-03-20T13:13:57.444Z,97700.28
2023-03-20T13:16:30.570Z,97694.56
2023-03-20T13:19:04.841Z,97692.94
2023-03-20T13:21:33.406Z,97692.91
2023-03-20T13:24:07.588Z,97688.94
2023-03-20T13:26:36.470Z,97693.50
2023-03-20T13:29:06.779Z,97683.84
2023-03-20T13:31:39.980Z,97671.25
2023-03-20T13:34:13.372Z,97676.84
2023-03-20T13:36:47.659Z,97674.06
2023-03-20T13:39:19.067Z,97673.16
2023-03-20T13:41:46.422Z,97670.09
2023-03-20T13:44:13.663Z,97673.25
2023-03-20T13:46:45.386Z,97670.56
2023-03-20T13:49:16.755Z,97665.50
2023-03-20T13:51:46.567Z,97657.31
2023-03-20T13:54:18.726Z,97672.78
2023-03-20T13:56:52.328Z,97665.34
2023-03-20T13:59:36.360Z,97670.03
2023-03-20T14:02:12.016Z,97660.31
2023-03-20T14:04:40.713Z,97648.81
2023-03-20T14:07:29.203Z,97657.34
2023-03-20T14:09:56.392Z,97659.22
2023-03-20T14:12:25.174Z,97657.63
2023-03-20T14:14:53.683Z,97646.56
2023-03-20T14:17:21.537Z,97653.31
2023-03-20T14:19:50.192Z,97649.66
2023-03-20T14:22:19.001Z,97646.97
2023-03-20T14:24:54.398Z,97646.13
2023-03-20T14:27:36.698Z,97636.78
2023-03-20T14:30:38.824Z,97642.25
2023-03-20T14:33:07.134Z,97638.72
2023-03-20T14:35:38.173Z,97637.38
2023-03-20T14:38:11.843Z,97633.50
2023-03-20T14:40:40.648Z,97635.06
2023-03-20T14:43:17.590Z,97635.50
2023-03-20T14:45:45.382Z,97633.66
2023-03-20T14:48:18.473Z,97628.78
2023-03-20T14:51:04.812Z,97623.72
2023-03-20T14:53:32.085Z,97598.97
2023-03-20T14:56:10.362Z,97606.00
2023-03-20T14:58:53.780Z,97606.16
2023-03-20T15:01:42.978Z,97603.53
2023-03-20T15:04:11.291Z,97608.00
2023-03-20T15:06:45.759Z,97610.66
2023-03-20T15:09:13.086Z,97606.28
2023-03-20T15:11:40.430Z,97602.75
2023-03-20T15:14:07.741Z,97608.16
2023-03-20T15:16:36.354Z,97607.81
2023-03-20T15:19:05.121Z,97599.50
2023-03-20T15:21:33.596Z,97607.97
2023-03-20T15:24:02.237Z,97608.88
2023-03-20T15:26:29.855Z,97603.34
2023-03-20T15:29:00.139Z,97600.13
2023-03-20T15:31:28.495Z,97610.78
2023-03-20T15:33:55.821Z,97606.66
2023-03-20T15:36:24.272Z,97605.63
2023-03-20T15:38:51.560Z,97612.72
2023-03-20T15:41:27.097Z,97606.28
2023-03-20T15:43:54.306Z,97604.03
2023-03-20T15:46:26.612Z,97614.47
2023-03-20T15:48:53.956Z,97609.03
2023-03-20T15:51:21.373Z,97612.47
2023-03-20T15:53:48.761Z,97613.00
2023-03-20T15:56:19.032Z,97613.94
2023-03-20T15:58:49.288Z,97614.00
2023-03-20T16:01:17.908Z,97609.88
2023-03-20T16:03:45.626Z,97604.84
2023-03-20T16:06:13.016Z,97607.00
2023-03-20T16:08:40.601Z,97610.69
2023-03-20T16:11:10.212Z,97603.34
2023-03-20T16:13:39.247Z,97606.72
2023-03-20T16:16:09.718Z,97597.47
2023-03-20T16:18:37.893Z,97597.25
2023-03-20T16:21:06.928Z,97594.41
2023-03-20T16:23:35.036Z,97594.53
2023-03-20T16:26:03.373Z,97595.63
2023-03-20T16:28:30.603Z,97584.50
2023-03-20T16:31:09.062Z,97586.84
2023-03-20T16:33:38.296Z,97593.72
2023-03-20T16:36:07.860Z,97592.94
2023-03-20T16:38:36.443Z,97598.56
2023-03-20T16:41:16.477Z,97591.25
2023-03-20T16:43:46.165Z,97600.34
2023-03-20T16:46:17.729Z,97604.94
2023-03-20T16:48:46.434Z,97602.41
2023-03-20T16:51:17.284Z,97607.56
2023-03-20T16:53:45.771Z,97606.41
2023-03-20T16:56:13.598Z,97606.13
2023-03-20T16:58:40.810Z,97598.13
2023-03-20T17:01:09.351Z,97602.56
2023-03-20T17:03:37.473Z,97597.31
2023-03-20T17:06:08.014Z,97603.19
2023-03-20T17:08:36.237Z,97604.88
2023-03-20T17:11:10.775Z,97602.69
2023-03-20T17:13:38.204Z,97602.66
2023-03-20T17:16:06.190Z,97607.44
2023-03-20T17:18:33.514Z,97614.47
2023-03-20T17:21:00.748Z,97605.78
2023-03-20T17:23:29.624Z,97618.28
2023-03-20T17:25:56.856Z,97613.19
2023-03-20T17:28:24.759Z,97620.66
2023-03-20T17:30:52.027Z,97620.19
2023-03-20T17:33:19.601Z,97622.28
2023-03-20T17:35:46.888Z,97628.88
2023-03-20T17:38:18.645Z,97636.06
2023-03-20T17:40:47.363Z,97628.00
2023-03-20T17:43:14.955Z,97633.63
2023-03-20T17:45:42.388Z,97632.34
2023-03-20T17:48:13.142Z,97623.22
2023-03-20T17:50:40.440Z,97632.19
2023-03-20T17:53:11.310Z,97624.38
2023-03-20T17:55:38.829Z,97633.00
2023-03-20T17:58:07.576Z,97639.63
2023-03-20T18:00:35.167Z,97628.84
2023-03-20T18:03:02.588Z,97627.50
2023-03-20T18:05:29.800Z,97626.72
2023-03-20T18:07:57.022Z,97626.69
2023-03-20T18:10:26.254Z,97629.75
2023-03-20T18:12:53.603Z,97624.44
2023-03-20T18:15:22.295Z,97625.91
2023-03-20T18:17:49.588Z,97624.59
2023-03-20T18:20:23.618Z,97621.34
2023-03-20T18:22:50.873Z,97626.31
2023-03-20T18:25:18.225Z,97618.72
2023-03-20T18:27:45.536Z,97623.50
2023-03-20T18:30:15.691Z,97628.78
2023-03-20T18:32:44.502Z,97623.56
2023-03-20T18:35:11.777Z,97622.41
2023-03-20T18:37:39.369Z,97630.47
2023-03-20T18:40:10.632Z,97624.00
2023-03-20T18:42:37.900Z,97624.28
2023-03-20T18:45:06.512Z,97626.22
2023-03-20T18:47:33.770Z,97623.00
2023-03-20T18:50:02.444Z,97622.69
2023-03-20T18:52:29.707Z,97627.72
2023-03-20T18:54:57.030Z,97629.91
2023-03-20T18:57:24.178Z,97637.38
2023-03-20T18:59:51.440Z,97633.47
2023-03-20T19:02:18.741Z,97639.97
2023-03-20T19:04:45.985Z,97643.03
2023-03-20T19:07:14.751Z,97632.66
2023-03-20T19:09:42.010Z,97632.84
2023-03-20T19:12:09.297Z,97633.88
2023-03-20T19:14:36.559Z,97633.78
2023-03-20T19:17:03.899Z,97637.75
2023-03-20T19:19:31.117Z,97630.66
2023-03-20T19:21:58.414Z,97631.66
2023-03-20T19:24:27.153Z,97623.00
2023-03-20T19:26:54.404Z,97621.53
2023-03-20T19:29:21.597Z,97633.91
2023-03-20T19:31:49.043Z,97628.50
2023-03-20T19:34:47.133Z,97624.16
2023-03-20T19:37:03.531Z,97631.50
2023-03-20T19:39:32.177Z,97627.94
2023-03-20T19:42:15.634Z,97627.34
2023-03-20T19:44:46.681Z,97627.34
2023-03-20T19:47:14.063Z,97618.84
2023-03-20T19:49:41.301Z,97609.88
2023-03-20T19:52:13.484Z,97609.16
2023-03-20T19:54:53.005Z,97610.16
2023-03-20T19:57:27.962Z,97618.97
2023-03-20T19:59:55.258Z,97621.63
2023-03-20T20:02:22.609Z,97619.84
2023-03-20T20:04:49.904Z,97613.31
2023-03-20T20:08:00.708Z,97620.16
2023-03-20T20:10:07.177Z,97626.72
2023-03-20T20:12:34.362Z,97632.25
2023-03-20T20:15:01.593Z,97628.94
2023-03-20T20:17:28.873Z,97617.81
2023-03-20T20:19:56.289Z,97625.94
2023-03-20T20:22:26.420Z,97621.03
2023-03-20T20:24:54.392Z,97618.84
2023-03-20T20:27:23.136Z,97609.66
2023-03-20T20:29:51.138Z,97623.31
2023-03-20T20:32:19.762Z,97627.78
